sensor_id;sensor_type;location;lat;lon;timestamp;P1;durP1;ratioP1;P2;durP2;ratioP2
6163;SDS011;3114;48.362;10.994;2023-05-24T00:00:11;3.25;;;2.25;;
6163;SDS011;3114;48.362;10.994;2023-05-24T00:02:40;2.10;;;1.90;;
6163;SDS011;3114;48.362;10.994;2023-05-24T00:05:07;2.10;;;2.00;;
6163;SDS011;3114;48.362;10.994;2023-05-24T00:07:34;2.08;;;1.88;;
6163;SDS011;3114;48.362;10.994;2023-05-24T00:10:02;1.88;;;1.65;;
6163;SDS011;3114;48.362;10.994;2023-05-24T00:12:31;1.80;;;1.70;;
6163;SDS011;3114;48.362;10.994;2023-05-24T00:14:57;2.55;;;2.30;;
6163;SDS011;3114;48.362;10.994;2023-05-24T00:17:24;2.50;;;2.17;;
6163;SDS011;3114;48.362;10.994;2023-05-24T00:19:54;2.47;;;2.28;;
6163;SDS011;3114;48.362;10.994;2023-05-24T00:22:21;2.92;;;2.17;;
6163;SDS011;3114;48.362;10.994;2023-05-24T00:24:49;2.65;;;2.10;;
6163;SDS011;3114;48.362;10.994;2023-05-24T00:27:15;2.13;;;2.00;;
6163;SDS011;3114;48.362;10.994;2023-05-24T00:29:44;2.42;;;2.22;;
6163;SDS011;3114;48.362;10.994;2023-05-24T00:32:11;2.40;;;2.20;;
6163;SDS011;3114;48.362;10.994;2023-05-24T00:34:38;2.85;;;2.25;;
6163;SDS011;3114;48.362;10.994;2023-05-24T00:37:05;2.85;;;2.45;;
6163;SDS011;3114;48.362;10.994;2023-05-24T00:39:32;2.50;;;2.30;;
6163;SDS011;3114;48.362;10.994;2023-05-24T00:41:59;2.50;;;2.30;;
6163;SDS011;3114;48.362;10.994;2023-05-24T00:44:26;5.35;;;2.45;;
6163;SDS011;3114;48.362;10.994;2023-05-24T00:46:54;2.63;;;2.40;;
6163;SDS011;3114;48.362;10.994;2023-05-24T00:49:21;2.42;;;2.22;;
6163;SDS011;3114;48.362;10.994;2023-05-24T00:51:48;2.95;;;2.28;;
6163;SDS011;3114;48.362;10.994;2023-05-24T00:54:16;4.43;;;2.60;;
6163;SDS011;3114;48.362;10.994;2023-05-24T00:56:43;3.42;;;2.45;;
6163;SDS011;3114;48.362;10.994;2023-05-24T00:59:10;2.50;;;2.30;;
6163;SDS011;3114;48.362;10.994;2023-05-24T01:01:38;2.55;;;2.35;;
6163;SDS011;3114;48.362;10.994;2023-05-24T01:04:07;2.40;;;2.20;;
6163;SDS011;3114;48.362;10.994;2023-05-24T01:06:37;2.92;;;2.63;;
6163;SDS011;3114;48.362;10.994;2023-05-24T01:09:17;2.90;;;2.10;;
6163;SDS011;3114;48.362;10.994;2023-05-24T01:11:55;2.33;;;2.20;;
6163;SDS011;3114;48.362;10.994;2023-05-24T01:14:30;2.70;;;2.50;;
6163;SDS011;3114;48.362;10.994;2023-05-24T01:17:03;4.40;;;2.20;;
6163;SDS011;3114;48.362;10.994;2023-05-24T01:19:55;2.50;;;2.30;;
6163;SDS011;3114;48.362;10.994;2023-05-24T01:22:28;2.55;;;2.35;;
6163;SDS011;3114;48.362;10.994;2023-05-24T01:25:11;2.88;;;2.47;;
6163;SDS011;3114;48.362;10.994;2023-05-24T01:27:45;2.80;;;2.58;;
6163;SDS011;3114;48.362;10.994;2023-05-24T01:30:13;4.32;;;2.60;;
6163;SDS011;3114;48.362;10.994;2023-05-24T01:32:40;2.95;;;2.75;;
6163;SDS011;3114;48.362;10.994;2023-05-24T01:35:08;3.85;;;3.30;;
6163;SDS011;3114;48.362;10.994;2023-05-24T01:37:35;3.00;;;2.78;;
6163;SDS011;3114;48.362;10.994;2023-05-24T01:40:02;3.30;;;3.00;;
6163;SDS011;3114;48.362;10.994;2023-05-24T01:42:31;4.25;;;3.80;;
6163;SDS011;3114;48.362;10.994;2023-05-24T01:45:11;4.97;;;3.45;;
6163;SDS011;3114;48.362;10.994;2023-05-24T01:47:46;4.00;;;3.60;;
6163;SDS011;3114;48.362;10.994;2023-05-24T01:50:30;4.05;;;3.60;;
6163;SDS011;3114;48.362;10.994;2023-05-24T01:53:03;4.85;;;3.75;;
6163;SDS011;3114;48.362;10.994;2023-05-24T01:55:32;5.05;;;3.40;;
6163;SDS011;3114;48.362;10.994;2023-05-24T01:58:01;4.85;;;3.75;;
6163;SDS011;3114;48.362;10.994;2023-05-24T02:00:31;4.13;;;3.72;;
6163;SDS011;3114;48.362;10.994;2023-05-24T02:02:58;5.88;;;4.13;;
6163;SDS011;3114;48.362;10.994;2023-05-24T02:05:27;4.25;;;3.80;;
6163;SDS011;3114;48.362;10.994;2023-05-24T02:07:54;3.90;;;3.50;;
6163;SDS011;3114;48.362;10.994;2023-05-24T02:10:20;5.22;;;4.60;;
6163;SDS011;3114;48.362;10.994;2023-05-24T02:12:47;4.85;;;3.95;;
6163;SDS011;3114;48.362;10.994;2023-05-24T02:15:14;5.05;;;4.00;;
6163;SDS011;3114;48.362;10.994;2023-05-24T02:17:43;5.30;;;3.80;;
6163;SDS011;3114;48.362;10.994;2023-05-24T02:20:10;5.35;;;3.88;;
6163;SDS011;3114;48.362;10.994;2023-05-24T02:22:38;6.20;;;4.00;;
6163;SDS011;3114;48.362;10.994;2023-05-24T02:25:05;6.25;;;3.65;;
6163;SDS011;3114;48.362;10.994;2023-05-24T02:27:33;4.55;;;3.85;;
6163;SDS011;3114;48.362;10.994;2023-05-24T02:29:59;4.82;;;3.55;;
6163;SDS011;3114;48.362;10.994;2023-05-24T02:32:26;5.82;;;3.97;;
6163;SDS011;3114;48.362;10.994;2023-05-24T02:34:55;6.35;;;4.00;;
6163;SDS011;3114;48.362;10.994;2023-05-24T02:37:23;4.35;;;3.40;;
6163;SDS011;3114;48.362;10.994;2023-05-24T02:39:50;4.22;;;3.25;;
6163;SDS011;3114;48.362;10.994;2023-05-24T02:42:17;6.13;;;3.80;;
6163;SDS011;3114;48.362;10.994;2023-05-24T02:44:43;7.43;;;3.45;;
6163;SDS011;3114;48.362;10.994;2023-05-24T02:47:12;4.75;;;3.03;;
6163;SDS011;3114;48.362;10.994;2023-05-24T02:49:40;5.45;;;3.30;;
6163;SDS011;3114;48.362;10.994;2023-05-24T02:52:08;4.47;;;2.97;;
6163;SDS011;3114;48.362;10.994;2023-05-24T02:54:35;5.22;;;3.05;;
6163;SDS011;3114;48.362;10.994;2023-05-24T02:57:02;4.25;;;3.10;;
6163;SDS011;3114;48.362;10.994;2023-05-24T02:59:30;3.97;;;2.90;;
6163;SDS011;3114;48.362;10.994;2023-05-24T03:01:57;5.55;;;3.60;;
6163;SDS011;3114;48.362;10.994;2023-05-24T03:04:24;5.18;;;2.90;;
6163;SDS011;3114;48.362;10.994;2023-05-24T03:06:51;5.03;;;3.05;;
6163;SDS011;3114;48.362;10.994;2023-05-24T03:09:20;5.78;;;3.40;;
6163;SDS011;3114;48.362;10.994;2023-05-24T03:11:46;4.63;;;2.92;;
6163;SDS011;3114;48.362;10.994;2023-05-24T03:14:13;4.03;;;2.53;;
6163;SDS011;3114;48.362;10.994;2023-05-24T03:16:41;7.85;;;2.97;;
6163;SDS011;3114;48.362;10.994;2023-05-24T03:19:08;4.97;;;2.88;;
6163;SDS011;3114;48.362;10.994;2023-05-24T03:21:35;5.22;;;3.03;;
6163;SDS011;3114;48.362;10.994;2023-05-24T03:24:02;4.03;;;2.90;;
6163;SDS011;3114;48.362;10.994;2023-05-24T03:26:31;3.67;;;2.95;;
6163;SDS011;3114;48.362;10.994;2023-05-24T03:28:57;6.07;;;2.80;;
6163;SDS011;3114;48.362;10.994;2023-05-24T03:31:24;3.03;;;2.72;;
6163;SDS011;3114;48.362;10.994;2023-05-24T03:33:51;4.88;;;2.92;;
6163;SDS011;3114;48.362;10.994;2023-05-24T03:36:19;4.72;;;2.72;;
6163;SDS011;3114;48.362;10.994;2023-05-24T03:38:46;4.80;;;2.92;;
6163;SDS011;3114;48.362;10.994;2023-05-24T03:41:13;3.70;;;2.90;;
6163;SDS011;3114;48.362;10.994;2023-05-24T03:43:41;3.53;;;2.55;;
6163;SDS011;3114;48.362;10.994;2023-05-24T03:46:08;4.68;;;3.08;;
6163;SDS011;3114;48.362;10.994;2023-05-24T03:48:35;4.53;;;2.80;;
6163;SDS011;3114;48.362;10.994;2023-05-24T03:51:02;6.90;;;3.40;;
6163;SDS011;3114;48.362;10.994;2023-05-24T03:53:29;5.03;;;2.90;;
6163;SDS011;3114;48.362;10.994;2023-05-24T03:55:56;4.90;;;2.97;;
6163;SDS011;3114;48.362;10.994;2023-05-24T03:58:23;6.90;;;3.10;;
6163;SDS011;3114;48.362;10.994;2023-05-24T04:00:51;4.60;;;2.83;;
6163;SDS011;3114;48.362;10.994;2023-05-24T04:03:19;4.25;;;3.08;;
6163;SDS011;3114;48.362;10.994;2023-05-24T04:05:46;4.65;;;2.88;;
6163;SDS011;3114;48.362;10.994;2023-05-24T04:08:12;5.00;;;2.90;;
6163;SDS011;3114;48.362;10.994;2023-05-24T04:10:40;4.93;;;2.90;;
6163;SDS011;3114;48.362;10.994;2023-05-24T04:13:07;5.22;;;2.90;;
6163;SDS011;3114;48.362;10.994;2023-05-24T04:15:34;8.77;;;3.10;;
6163;SDS011;3114;48.362;10.994;2023-05-24T04:18:03;6.88;;;2.78;;
6163;SDS011;3114;48.362;10.994;2023-05-24T04:20:30;7.38;;;2.97;;
6163;SDS011;3114;48.362;10.994;2023-05-24T04:22:57;9.02;;;3.35;;
6163;SDS011;3114;48.362;10.994;2023-05-24T04:25:24;5.60;;;3.10;;
6163;SDS011;3114;48.362;10.994;2023-05-24T04:27:52;4.32;;;3.17;;
6163;SDS011;3114;48.362;10.994;2023-05-24T04:30:20;7.78;;;3.10;;
6163;SDS011;3114;48.362;10.994;2023-05-24T04:32:47;6.18;;;3.13;;
6163;SDS011;3114;48.362;10.994;2023-05-24T04:35:16;6.97;;;3.05;;
6163;SDS011;3114;48.362;10.994;2023-05-24T04:37:43;7.85;;;3.40;;
6163;SDS011;3114;48.362;10.994;2023-05-24T04:40:12;5.35;;;3.08;;
6163;SDS011;3114;48.362;10.994;2023-05-24T04:42:40;4.75;;;2.88;;
6163;SDS011;3114;48.362;10.994;2023-05-24T04:45:08;7.15;;;3.28;;
6163;SDS011;3114;48.362;10.994;2023-05-24T04:47:36;4.60;;;3.00;;
6163;SDS011;3114;48.362;10.994;2023-05-24T04:50:03;5.38;;;3.00;;
6163;SDS011;3114;48.362;10.994;2023-05-24T04:52:32;8.13;;;2.88;;
6163;SDS011;3114;48.362;10.994;2023-05-24T04:55:01;7.30;;;3.45;;
6163;SDS011;3114;48.362;10.994;2023-05-24T04:57:28;5.72;;;3.00;;
6163;SDS011;3114;48.362;10.994;2023-05-24T04:59:55;6.43;;;3.13;;
6163;SDS011;3114;48.362;10.994;2023-05-24T05:02:22;7.03;;;2.90;;
6163;SDS011;3114;48.362;10.994;2023-05-24T05:04:50;6.00;;;3.30;;
6163;SDS011;3114;48.362;10.994;2023-05-24T05:07:17;6.43;;;2.90;;
6163;SDS011;3114;48.362;10.994;2023-05-24T05:09:45;5.68;;;3.13;;
6163;SDS011;3114;48.362;10.994;2023-05-24T05:12:12;7.80;;;4.00;;
6163;SDS011;3114;48.362;10.994;2023-05-24T05:14:39;7.80;;;2.90;;
6163;SDS011;3114;48.362;10.994;2023-05-24T05:17:06;7.75;;;3.17;;
6163;SDS011;3114;48.362;10.994;2023-05-24T05:19:33;5.85;;;2.95;;
6163;SDS011;3114;48.362;10.994;2023-05-24T05:22:00;6.57;;;2.85;;
6163;SDS011;3114;48.362;10.994;2023-05-24T05:24:27;6.40;;;3.10;;
6163;SDS011;3114;48.362;10.994;2023-05-24T05:26:55;7.15;;;3.15;;
6163;SDS011;3114;48.362;10.994;2023-05-24T05:29:22;5.63;;;3.05;;
6163;SDS011;3114;48.362;10.994;2023-05-24T05:31:49;7.90;;;3.28;;
6163;SDS011;3114;48.362;10.994;2023-05-24T05:34:15;5.25;;;3.00;;
6163;SDS011;3114;48.362;10.994;2023-05-24T05:36:43;6.72;;;3.05;;
6163;SDS011;3114;48.362;10.994;2023-05-24T05:39:10;5.68;;;3.30;;
6163;SDS011;3114;48.362;10.994;2023-05-24T05:41:38;7.53;;;2.92;;
6163;SDS011;3114;48.362;10.994;2023-05-24T05:44:09;5.90;;;2.80;;
6163;SDS011;3114;48.362;10.994;2023-05-24T05:46:36;7.88;;;3.30;;
6163;SDS011;3114;48.362;10.994;2023-05-24T05:49:03;7.05;;;3.17;;
6163;SDS011;3114;48.362;10.994;2023-05-24T05:51:31;6.15;;;3.20;;
6163;SDS011;3114;48.362;10.994;2023-05-24T05:53:58;5.97;;;3.10;;
6163;SDS011;3114;48.362;10.994;2023-05-24T05:56:25;8.27;;;3.40;;
6163;SDS011;3114;48.362;10.994;2023-05-24T05:58:52;5.93;;;3.08;;
6163;SDS011;3114;48.362;10.994;2023-05-24T06:01:20;7.25;;;3.20;;
6163;SDS011;3114;48.362;10.994;2023-05-24T06:03:48;7.85;;;3.17;;
6163;SDS011;3114;48.362;10.994;2023-05-24T06:06:18;7.57;;;3.30;;
6163;SDS011;3114;48.362;10.994;2023-05-24T06:08:45;6.00;;;2.75;;
6163;SDS011;3114;48.362;10.994;2023-05-24T06:11:12;7.57;;;3.22;;
6163;SDS011;3114;48.362;10.994;2023-05-24T06:13:39;5.82;;;2.92;;
6163;SDS011;3114;48.362;10.994;2023-05-24T06:16:05;6.47;;;3.10;;
6163;SDS011;3114;48.362;10.994;2023-05-24T06:18:35;6.55;;;3.05;;
6163;SDS011;3114;48.362;10.994;2023-05-24T06:21:02;6.32;;;3.05;;
6163;SDS011;3114;48.362;10.994;2023-05-24T06:23:29;5.25;;;3.13;;
6163;SDS011;3114;48.362;10.994;2023-05-24T06:25:57;6.85;;;3.00;;
6163;SDS011;3114;48.362;10.994;2023-05-24T06:28:25;7.97;;;3.00;;
6163;SDS011;3114;48.362;10.994;2023-05-24T06:30:52;7.68;;;3.35;;
6163;SDS011;3114;48.362;10.994;2023-05-24T06:33:19;7.32;;;3.30;;
6163;SDS011;3114;48.362;10.994;2023-05-24T06:35:47;6.63;;;3.47;;
6163;SDS011;3114;48.362;10.994;2023-05-24T06:38:14;8.07;;;3.00;;
6163;SDS011;3114;48.362;10.994;2023-05-24T06:40:41;8.45;;;3.40;;
6163;SDS011;3114;48.362;10.994;2023-05-24T06:43:08;6.85;;;3.38;;
6163;SDS011;3114;48.362;10.994;2023-05-24T06:45:37;7.63;;;2.92;;
6163;SDS011;3114;48.362;10.994;2023-05-24T06:48:04;8.80;;;3.13;;
6163;SDS011;3114;48.362;10.994;2023-05-24T06:50:31;5.03;;;3.25;;
6163;SDS011;3114;48.362;10.994;2023-05-24T06:52:59;8.57;;;3.50;;
6163;SDS011;3114;48.362;10.994;2023-05-24T06:55:26;11.63;;;3.50;;
6163;SDS011;3114;48.362;10.994;2023-05-24T06:57:53;7.90;;;3.38;;
6163;SDS011;3114;48.362;10.994;2023-05-24T07:00:20;9.70;;;3.75;;
6163;SDS011;3114;48.362;10.994;2023-05-24T07:02:47;6.25;;;2.85;;
6163;SDS011;3114;48.362;10.994;2023-05-24T07:05:14;9.27;;;3.40;;
6163;SDS011;3114;48.362;10.994;2023-05-24T07:07:41;5.63;;;3.25;;
6163;SDS011;3114;48.362;10.994;2023-05-24T07:10:10;5.75;;;3.60;;
6163;SDS011;3114;48.362;10.994;2023-05-24T07:12:37;9.80;;;2.97;;
6163;SDS011;3114;48.362;10.994;2023-05-24T07:15:04;7.00;;;3.38;;
6163;SDS011;3114;48.362;10.994;2023-05-24T07:17:32;7.45;;;3.33;;
6163;SDS011;3114;48.362;10.994;2023-05-24T07:19:59;7.95;;;3.17;;
6163;SDS011;3114;48.362;10.994;2023-05-24T07:22:27;7.40;;;2.83;;
6163;SDS011;3114;48.362;10.994;2023-05-24T07:24:55;6.80;;;3.00;;
6163;SDS011;3114;48.362;10.994;2023-05-24T07:27:23;6.43;;;3.50;;
6163;SDS011;3114;48.362;10.994;2023-05-24T07:29:50;7.20;;;3.60;;
6163;SDS011;3114;48.362;10.994;2023-05-24T07:32:18;8.55;;;3.67;;
6163;SDS011;3114;48.362;10.994;2023-05-24T07:34:45;7.60;;;3.70;;
6163;SDS011;3114;48.362;10.994;2023-05-24T07:37:12;6.78;;;3.42;;
6163;SDS011;3114;48.362;10.994;2023-05-24T07:39:38;9.65;;;3.70;;
6163;SDS011;3114;48.362;10.994;2023-05-24T07:42:05;9.52;;;3.95;;
6163;SDS011;3114;48.362;10.994;2023-05-24T07:44:34;8.70;;;3.72;;
6163;SDS011;3114;48.362;10.994;2023-05-24T07:47:01;7.30;;;3.63;;
6163;SDS011;3114;48.362;10.994;2023-05-24T07:49:28;9.38;;;3.92;;
6163;SDS011;3114;48.362;10.994;2023-05-24T07:51:55;7.45;;;3.50;;
6163;SDS011;3114;48.362;10.994;2023-05-24T07:54:23;8.43;;;3.90;;
6163;SDS011;3114;48.362;10.994;2023-05-24T07:56:50;7.93;;;3.28;;
6163;SDS011;3114;48.362;10.994;2023-05-24T07:59:17;7.90;;;3.45;;
6163;SDS011;3114;48.362;10.994;2023-05-24T08:01:45;7.35;;;3.30;;
6163;SDS011;3114;48.362;10.994;2023-05-24T08:04:12;7.97;;;3.15;;
6163;SDS011;3114;48.362;10.994;2023-05-24T08:06:39;8.57;;;3.33;;
6163;SDS011;3114;48.362;10.994;2023-05-24T08:09:06;8.05;;;3.30;;
6163;SDS011;3114;48.362;10.994;2023-05-24T08:11:33;9.05;;;3.63;;
6163;SDS011;3114;48.362;10.994;2023-05-24T08:14:00;9.73;;;3.55;;
6163;SDS011;3114;48.362;10.994;2023-05-24T08:16:27;5.82;;;3.33;;
6163;SDS011;3114;48.362;10.994;2023-05-24T08:18:55;8.90;;;3.30;;
6163;SDS011;3114;48.362;10.994;2023-05-24T08:21:22;12.35;;;3.58;;
6163;SDS011;3114;48.362;10.994;2023-05-24T08:23:49;8.25;;;3.40;;
6163;SDS011;3114;48.362;10.994;2023-05-24T08:26:16;10.82;;;3.70;;
6163;SDS011;3114;48.362;10.994;2023-05-24T08:28:44;5.03;;;3.00;;
6163;SDS011;3114;48.362;10.994;2023-05-24T08:31:11;7.18;;;3.40;;
6163;SDS011;3114;48.362;10.994;2023-05-24T08:33:38;9.07;;;4.30;;
6163;SDS011;3114;48.362;10.994;2023-05-24T08:36:07;6.53;;;3.63;;
6163;SDS011;3114;48.362;10.994;2023-05-24T08:38:34;5.57;;;3.33;;
6163;SDS011;3114;48.362;10.994;2023-05-24T08:41:01;8.40;;;3.42;;
6163;SDS011;3114;48.362;10.994;2023-05-24T08:43:32;11.43;;;3.45;;
6163;SDS011;3114;48.362;10.994;2023-05-24T08:45:59;7.07;;;3.65;;
6163;SDS011;3114;48.362;10.994;2023-05-24T08:48:28;8.75;;;3.78;;
6163;SDS011;3114;48.362;10.994;2023-05-24T08:50:56;12.32;;;3.65;;
6163;SDS011;3114;48.362;10.994;2023-05-24T08:53:24;9.90;;;3.33;;
6163;SDS011;3114;48.362;10.994;2023-05-24T08:55:51;8.85;;;3.80;;
6163;SDS011;3114;48.362;10.994;2023-05-24T08:58:20;8.45;;;3.60;;
6163;SDS011;3114;48.362;10.994;2023-05-24T09:00:47;9.25;;;3.75;;
6163;SDS011;3114;48.362;10.994;2023-05-24T09:03:13;8.88;;;3.67;;
6163;SDS011;3114;48.362;10.994;2023-05-24T09:05:42;10.30;;;3.08;;
6163;SDS011;3114;48.362;10.994;2023-05-24T09:08:10;10.88;;;3.33;;
6163;SDS011;3114;48.362;10.994;2023-05-24T09:10:38;9.27;;;3.58;;
6163;SDS011;3114;48.362;10.994;2023-05-24T09:13:05;6.68;;;3.28;;
6163;SDS011;3114;48.362;10.994;2023-05-24T09:15:33;8.65;;;3.67;;
6163;SDS011;3114;48.362;10.994;2023-05-24T09:18:01;9.13;;;4.10;;
6163;SDS011;3114;48.362;10.994;2023-05-24T09:20:28;10.63;;;3.78;;
6163;SDS011;3114;48.362;10.994;2023-05-24T09:22:55;11.02;;;4.00;;
6163;SDS011;3114;48.362;10.994;2023-05-24T09:25:24;7.35;;;3.30;;
6163;SDS011;3114;48.362;10.994;2023-05-24T09:27:55;7.80;;;3.95;;
6163;SDS011;3114;48.362;10.994;2023-05-24T09:30:22;7.22;;;3.72;;
6163;SDS011;3114;48.362;10.994;2023-05-24T09:32:55;7.97;;;3.45;;
6163;SDS011;3114;48.362;10.994;2023-05-24T09:35:23;6.07;;;3.35;;
6163;SDS011;3114;48.362;10.994;2023-05-24T09:37:52;9.68;;;3.38;;
6163;SDS011;3114;48.362;10.994;2023-05-24T09:40:21;7.32;;;2.88;;
6163;SDS011;3114;48.362;10.994;2023-05-24T09:42:48;10.32;;;3.10;;
6163;SDS011;3114;48.362;10.994;2023-05-24T09:45:29;7.30;;;3.03;;
6163;SDS011;3114;48.362;10.994;2023-05-24T09:47:57;10.98;;;3.03;;
6163;SDS011;3114;48.362;10.994;2023-05-24T09:50:24;8.88;;;3.17;;
6163;SDS011;3114;48.362;10.994;2023-05-24T09:52:52;9.43;;;3.03;;
6163;SDS011;3114;48.362;10.994;2023-05-24T09:55:20;10.48;;;3.35;;
6163;SDS011;3114;48.362;10.994;2023-05-24T09:57:49;8.50;;;3.35;;
6163;SDS011;3114;48.362;10.994;2023-05-24T10:00:21;9.13;;;3.05;;
6163;SDS011;3114;48.362;10.994;2023-05-24T10:02:59;6.78;;;3.45;;
6163;SDS011;3114;48.362;10.994;2023-05-24T10:05:27;9.88;;;3.90;;
6163;SDS011;3114;48.362;10.994;2023-05-24T10:07:55;9.73;;;3.40;;
6163;SDS011;3114;48.362;10.994;2023-05-24T10:10:25;8.15;;;3.15;;
6163;SDS011;3114;48.362;10.994;2023-05-24T10:12:54;7.70;;;3.45;;
6163;SDS011;3114;48.362;10.994;2023-05-24T10:15:22;8.07;;;3.55;;
6163;SDS011;3114;48.362;10.994;2023-05-24T10:17:50;10.15;;;3.50;;
6163;SDS011;3114;48.362;10.994;2023-05-24T10:20:17;8.60;;;2.95;;
6163;SDS011;3114;48.362;10.994;2023-05-24T10:22:45;11.88;;;3.13;;
6163;SDS011;3114;48.362;10.994;2023-05-24T10:25:13;11.55;;;3.70;;
6163;SDS011;3114;48.362;10.994;2023-05-24T10:27:45;10.77;;;3.20;;
6163;SDS011;3114;48.362;10.994;2023-05-24T10:30:15;9.32;;;3.25;;
6163;SDS011;3114;48.362;10.994;2023-05-24T10:32:52;8.57;;;2.95;;
6163;SDS011;3114;48.362;10.994;2023-05-24T10:35:20;6.15;;;3.00;;
6163;SDS011;3114;48.362;10.994;2023-05-24T10:37:48;8.25;;;3.10;;
6163;SDS011;3114;48.362;10.994;2023-05-24T10:40:16;9.15;;;3.60;;
6163;SDS011;3114;48.362;10.994;2023-05-24T10:42:45;10.27;;;3.42;;
6163;SDS011;3114;48.362;10.994;2023-05-24T10:54:09;10.18;;;3.65;;
6163;SDS011;3114;48.362;10.994;2023-05-24T10:56:41;10.38;;;3.30;;
6163;SDS011;3114;48.362;10.994;2023-05-24T10:59:20;11.20;;;2.88;;
6163;SDS011;3114;48.362;10.994;2023-05-24T11:01:54;8.15;;;3.22;;
6163;SDS011;3114;48.362;10.994;2023-05-24T11:04:24;13.30;;;3.50;;
6163;SDS011;3114;48.362;10.994;2023-05-24T11:06:53;7.30;;;3.33;;
6163;SDS011;3114;48.362;10.994;2023-05-24T11:09:22;10.80;;;3.53;;
6163;SDS011;3114;48.362;10.994;2023-05-24T11:11:53;8.20;;;3.22;;
6163;SDS011;3114;48.362;10.994;2023-05-24T11:14:22;9.63;;;2.92;;
6163;SDS011;3114;48.362;10.994;2023-05-24T11:16:50;7.90;;;2.95;;
6163;SDS011;3114;48.362;10.994;2023-05-24T11:19:17;8.52;;;3.20;;
6163;SDS011;3114;48.362;10.994;2023-05-24T11:21:48;6.55;;;2.85;;
6163;SDS011;3114;48.362;10.994;2023-05-24T11:24:15;7.47;;;2.72;;
6163;SDS011;3114;48.362;10.994;2023-05-24T11:26:43;11.15;;;3.20;;
6163;SDS011;3114;48.362;10.994;2023-05-24T11:29:11;13.77;;;3.35;;
6163;SDS011;3114;48.362;10.994;2023-05-24T11:31:45;11.32;;;3.55;;
6163;SDS011;3114;48.362;10.994;2023-05-24T11:34:13;9.35;;;3.55;;
6163;SDS011;3114;48.362;10.994;2023-05-24T11:36:41;10.15;;;4.00;;
6163;SDS011;3114;48.362;10.994;2023-05-24T11:39:10;9.65;;;2.90;;
6163;SDS011;3114;48.362;10.994;2023-05-24T11:41:38;10.75;;;3.50;;
6163;SDS011;3114;48.362;10.994;2023-05-24T11:44:06;10.23;;;3.60;;
6163;SDS011;3114;48.362;10.994;2023-05-24T11:46:34;9.77;;;3.60;;
6163;SDS011;3114;48.362;10.994;2023-05-24T11:49:03;7.93;;;3.10;;
6163;SDS011;3114;48.362;10.994;2023-05-24T11:51:31;11.35;;;3.92;;
6163;SDS011;3114;48.362;10.994;2023-05-24T11:53:59;7.90;;;2.92;;
6163;SDS011;3114;48.362;10.994;2023-05-24T11:56:29;8.40;;;3.10;;
6163;SDS011;3114;48.362;10.994;2023-05-24T11:59:00;9.82;;;3.90;;
6163;SDS011;3114;48.362;10.994;2023-05-24T12:01:33;9.88;;;3.67;;
6163;SDS011;3114;48.362;10.994;2023-05-24T12:04:02;12.20;;;3.30;;
6163;SDS011;3114;48.362;10.994;2023-05-24T12:06:35;6.95;;;3.25;;
6163;SDS011;3114;48.362;10.994;2023-05-24T12:09:02;12.02;;;3.38;;
6163;SDS011;3114;48.362;10.994;2023-05-24T12:11:33;9.85;;;3.30;;
6163;SDS011;3114;48.362;10.994;2023-05-24T12:14:03;10.65;;;3.63;;
6163;SDS011;3114;48.362;10.994;2023-05-24T12:16:30;10.07;;;3.22;;
6163;SDS011;3114;48.362;10.994;2023-05-24T12:18:57;8.13;;;3.03;;
6163;SDS011;3114;48.362;10.994;2023-05-24T12:21:24;6.75;;;2.72;;
6163;SDS011;3114;48.362;10.994;2023-05-24T12:23:55;6.32;;;3.25;;
6163;SDS011;3114;48.362;10.994;2023-05-24T12:26:22;6.55;;;3.20;;
6163;SDS011;3114;48.362;10.994;2023-05-24T12:28:53;8.48;;;3.40;;
6163;SDS011;3114;48.362;10.994;2023-05-24T12:31:21;7.35;;;3.38;;
6163;SDS011;3114;48.362;10.994;2023-05-24T12:33:47;6.50;;;3.28;;
6163;SDS011;3114;48.362;10.994;2023-05-24T12:36:14;10.55;;;3.60;;
6163;SDS011;3114;48.362;10.994;2023-05-24T12:38:42;7.43;;;3.63;;
6163;SDS011;3114;48.362;10.994;2023-05-24T12:41:09;7.65;;;2.83;;
6163;SDS011;3114;48.362;10.994;2023-05-24T12:43:37;6.28;;;2.70;;
6163;SDS011;3114;48.362;10.994;2023-05-24T12:46:06;9.20;;;3.08;;
6163;SDS011;3114;48.362;10.994;2023-05-24T12:48:33;6.45;;;2.70;;
6163;SDS011;3114;48.362;10.994;2023-05-24T12:51:00;6.53;;;3.05;;
6163;SDS011;3114;48.362;10.994;2023-05-24T12:53:28;6.80;;;2.90;;
6163;SDS011;3114;48.362;10.994;2023-05-24T12:55:55;6.43;;;3.00;;
6163;SDS011;3114;48.362;10.994;2023-05-24T12:58:24;9.32;;;3.17;;
6163;SDS011;3114;48.362;10.994;2023-05-24T13:00:51;6.10;;;2.90;;
6163;SDS011;3114;48.362;10.994;2023-05-24T13:03:19;7.93;;;3.17;;
6163;SDS011;3114;48.362;10.994;2023-05-24T13:05:46;8.27;;;4.13;;
6163;SDS011;3114;48.362;10.994;2023-05-24T13:08:13;7.00;;;4.30;;
6163;SDS011;3114;48.362;10.994;2023-05-24T13:10:40;10.13;;;3.78;;
6163;SDS011;3114;48.362;10.994;2023-05-24T13:13:07;8.18;;;3.63;;
6163;SDS011;3114;48.362;10.994;2023-05-24T13:15:34;10.48;;;3.03;;
6163;SDS011;3114;48.362;10.994;2023-05-24T13:18:02;8.30;;;3.65;;
6163;SDS011;3114;48.362;10.994;2023-05-24T13:20:30;8.15;;;3.63;;
6163;SDS011;3114;48.362;10.994;2023-05-24T13:22:57;6.80;;;3.33;;
6163;SDS011;3114;48.362;10.994;2023-05-24T13:25:24;12.30;;;3.10;;
6163;SDS011;3114;48.362;10.994;2023-05-24T13:27:51;9.05;;;6.10;;
6163;SDS011;3114;48.362;10.994;2023-05-24T13:30:18;7.03;;;4.00;;
6163;SDS011;3114;48.362;10.994;2023-05-24T13:32:51;5.90;;;3.05;;
6163;SDS011;3114;48.362;10.994;2023-05-24T13:35:18;6.30;;;2.90;;
6163;SDS011;3114;48.362;10.994;2023-05-24T13:37:47;5.75;;;2.42;;
6163;SDS011;3114;48.362;10.994;2023-05-24T13:40:15;6.28;;;3.03;;
6163;SDS011;3114;48.362;10.994;2023-05-24T13:42:42;6.05;;;2.95;;
6163;SDS011;3114;48.362;10.994;2023-05-24T13:45:09;8.07;;;3.08;;
6163;SDS011;3114;48.362;10.994;2023-05-24T13:47:36;5.75;;;3.03;;
6163;SDS011;3114;48.362;10.994;2023-05-24T13:50:04;7.13;;;2.72;;
6163;SDS011;3114;48.362;10.994;2023-05-24T13:52:31;8.25;;;3.00;;
6163;SDS011;3114;48.362;10.994;2023-05-24T13:55:00;8.30;;;3.70;;
6163;SDS011;3114;48.362;10.994;2023-05-24T13:57:28;8.10;;;3.25;;
6163;SDS011;3114;48.362;10.994;2023-05-24T13:59:55;7.05;;;3.17;;
6163;SDS011;3114;48.362;10.994;2023-05-24T14:02:21;7.82;;;3.38;;
6163;SDS011;3114;48.362;10.994;2023-05-24T14:04:48;7.07;;;3.15;;
6163;SDS011;3114;48.362;10.994;2023-05-24T14:07:16;8.55;;;3.20;;
6163;SDS011;3114;48.362;10.994;2023-05-24T14:09:43;7.90;;;3.08;;
6163;SDS011;3114;48.362;10.994;2023-05-24T14:12:11;5.93;;;3.13;;
6163;SDS011;3114;48.362;10.994;2023-05-24T14:14:38;8.15;;;3.20;;
6163;SDS011;3114;48.362;10.994;2023-05-24T14:17:05;8.40;;;3.38;;
6163;SDS011;3114;48.362;10.994;2023-05-24T14:19:32;10.65;;;3.30;;
6163;SDS011;3114;48.362;10.994;2023-05-24T14:21:59;9.38;;;3.30;;
6163;SDS011;3114;48.362;10.994;2023-05-24T14:24:26;9.07;;;3.95;;
6163;SDS011;3114;48.362;10.994;2023-05-24T14:26:52;15.27;;;3.97;;
6163;SDS011;3114;48.362;10.994;2023-05-24T14:29:21;8.98;;;3.78;;
6163;SDS011;3114;48.362;10.994;2023-05-24T14:31:48;10.88;;;3.35;;
6163;SDS011;3114;48.362;10.994;2023-05-24T14:34:15;8.73;;;3.60;;
6163;SDS011;3114;48.362;10.994;2023-05-24T14:36:41;8.57;;;3.53;;
6163;SDS011;3114;48.362;10.994;2023-05-24T14:39:09;12.38;;;3.47;;
6163;SDS011;3114;48.362;10.994;2023-05-24T14:41:36;8.82;;;4.20;;
6163;SDS011;3114;48.362;10.994;2023-05-24T14:44:03;10.25;;;3.40;;
6163;SDS011;3114;48.362;10.994;2023-05-24T14:46:31;12.10;;;3.80;;
6163;SDS011;3114;48.362;10.994;2023-05-24T14:48:58;9.93;;;3.90;;
6163;SDS011;3114;48.362;10.994;2023-05-24T14:51:26;9.27;;;3.33;;
6163;SDS011;3114;48.362;10.994;2023-05-24T14:53:53;11.50;;;3.50;;
6163;SDS011;3114;48.362;10.994;2023-05-24T14:56:20;12.77;;;4.25;;
6163;SDS011;3114;48.362;10.994;2023-05-24T14:58:47;12.38;;;4.20;;
6163;SDS011;3114;48.362;10.994;2023-05-24T15:01:13;13.73;;;4.45;;
6163;SDS011;3114;48.362;10.994;2023-05-24T15:03:42;12.38;;;3.83;;
6163;SDS011;3114;48.362;10.994;2023-05-24T15:06:08;15.18;;;4.22;;
6163;SDS011;3114;48.362;10.994;2023-05-24T15:08:35;13.93;;;4.07;;
6163;SDS011;3114;48.362;10.994;2023-05-24T15:11:02;11.38;;;4.20;;
6163;SDS011;3114;48.362;10.994;2023-05-24T15:13:30;10.65;;;4.15;;